Terminal Aerodrome Forecast
Issued by NWS Cleveland, OH

Home | Current Version | Previous Version | Graphics & Text | Print | Product List | Glossary On
Versions: 1 2 3 4 5 6 7 8 9 10 11 12 13 14 15 16 17 18 19 20 21 22 23 24 25 26 27 28 29
000
FTUS41 KCLE 232108 AAA
TAFCLE
TAF AMD
KCLE 232108Z 2321/2424 24010G15KT P6SM BKN040
     FM240300 03004KT 6SM -SHRA OVC025
     FM240700 14008KT 6SM BR SCT025
     FM240900 17010KT P6SM SCT025
     FM241400 19010G20KT P6SM SCT025
     FM242100 19015G25KT P6SM OVC250=

USA.gov is the U.S. government's official web portal to all federal, state and local government web resources and services.